sensor_id;sensor_type;location;lat;lon;timestamp;temperature;humidity
69189;DHT22;56302;52.322;5.926;2022-10-26T00:00:05;7.10;95.00
69189;DHT22;56302;52.322;5.926;2022-10-26T00:02:31;7.10;95.10
69189;DHT22;56302;52.322;5.926;2022-10-26T00:04:57;7.00;95.20
69189;DHT22;56302;52.322;5.926;2022-10-26T00:07:22;7.00;95.50
69189;DHT22;56302;52.322;5.926;2022-10-26T00:09:48;7.00;95.60
69189;DHT22;56302;52.322;5.926;2022-10-26T00:12:13;6.90;96.40
69189;DHT22;56302;52.322;5.926;2022-10-26T00:14:39;7.00;96.20
69189;DHT22;56302;52.322;5.926;2022-10-26T00:17:04;7.10;96.00
69189;DHT22;56302;52.322;5.926;2022-10-26T00:19:32;7.10;95.90
69189;DHT22;56302;52.322;5.926;2022-10-26T00:21:58;7.10;95.40
69189;DHT22;56302;52.322;5.926;2022-10-26T00:24:23;7.00;95.40
69189;DHT22;56302;52.322;5.926;2022-10-26T00:26:49;7.00;95.60
69189;DHT22;56302;52.322;5.926;2022-10-26T00:29:14;7.00;96.00
69189;DHT22;56302;52.322;5.926;2022-10-26T00:31:41;6.90;96.70
69189;DHT22;56302;52.322;5.926;2022-10-26T00:34:08;6.90;97.30
69189;DHT22;56302;52.322;5.926;2022-10-26T00:36:34;6.80;97.20
69189;DHT22;56302;52.322;5.926;2022-10-26T00:38:59;6.80;97.30
69189;DHT22;56302;52.322;5.926;2022-10-26T00:41:28;6.70;97.50
69189;DHT22;56302;52.322;5.926;2022-10-26T00:43:54;6.80;98.00
69189;DHT22;56302;52.322;5.926;2022-10-26T00:46:21;6.80;98.00
69189;DHT22;56302;52.322;5.926;2022-10-26T00:49:02;6.80;98.20
69189;DHT22;56302;52.322;5.926;2022-10-26T00:51:39;6.80;98.30
69189;DHT22;56302;52.322;5.926;2022-10-26T00:54:10;6.80;98.60
69189;DHT22;56302;52.322;5.926;2022-10-26T00:56:38;6.90;98.60
69189;DHT22;56302;52.322;5.926;2022-10-26T00:59:06;7.00;98.40
69189;DHT22;56302;52.322;5.926;2022-10-26T01:01:35;7.10;97.90
69189;DHT22;56302;52.322;5.926;2022-10-26T01:04:02;7.10;97.40
69189;DHT22;56302;52.322;5.926;2022-10-26T01:06:29;7.20;97.20
69189;DHT22;56302;52.322;5.926;2022-10-26T01:08:56;7.10;97.10
69189;DHT22;56302;52.322;5.926;2022-10-26T01:11:21;7.20;97.20
69189;DHT22;56302;52.322;5.926;2022-10-26T01:13:48;7.20;97.10
69189;DHT22;56302;52.322;5.926;2022-10-26T01:21:56;7.00;97.80
69189;DHT22;56302;52.322;5.926;2022-10-26T01:24:47;7.00;98.20
69189;DHT22;56302;52.322;5.926;2022-10-26T01:27:41;7.00;98.20
69189;DHT22;56302;52.322;5.926;2022-10-26T01:38:51;7.10;97.40
69189;DHT22;56302;52.322;5.926;2022-10-26T01:41:31;7.00;98.00
69189;DHT22;56302;52.322;5.926;2022-10-26T01:44:13;7.00;98.50
69189;DHT22;56302;52.322;5.926;2022-10-26T01:46:42;6.90;98.70
69189;DHT22;56302;52.322;5.926;2022-10-26T01:49:11;6.90;99.00
69189;DHT22;56302;52.322;5.926;2022-10-26T01:51:39;6.90;99.40
69189;DHT22;56302;52.322;5.926;2022-10-26T01:54:06;7.00;99.30
69189;DHT22;56302;52.322;5.926;2022-10-26T01:56:35;7.00;99.10
69189;DHT22;56302;52.322;5.926;2022-10-26T02:02:26;6.90;98.90
69189;DHT22;56302;52.322;5.926;2022-10-26T02:16:24;7.00;99.30
69189;DHT22;56302;52.322;5.926;2022-10-26T02:21:23;7.00;99.60
69189;DHT22;56302;52.322;5.926;2022-10-26T02:23:51;7.10;99.60
69189;DHT22;56302;52.322;5.926;2022-10-26T02:26:22;7.10;99.80
69189;DHT22;56302;52.322;5.926;2022-10-26T02:28:50;7.20;99.90
69189;DHT22;56302;52.322;5.926;2022-10-26T02:31:19;7.20;99.90
69189;DHT22;56302;52.322;5.926;2022-10-26T02:33:48;7.20;99.90
69189;DHT22;56302;52.322;5.926;2022-10-26T02:36:18;7.20;99.90
69189;DHT22;56302;52.322;5.926;2022-10-26T02:38:47;7.20;99.90
69189;DHT22;56302;52.322;5.926;2022-10-26T02:41:14;7.30;99.90
69189;DHT22;56302;52.322;5.926;2022-10-26T02:43:45;7.40;99.80
69189;DHT22;56302;52.322;5.926;2022-10-26T02:46:15;7.40;99.30
69189;DHT22;56302;52.322;5.926;2022-10-26T02:48:42;7.40;99.10
69189;DHT22;56302;52.322;5.926;2022-10-26T02:51:15;7.50;98.80
69189;DHT22;56302;52.322;5.926;2022-10-26T02:54:00;7.50;98.80
69189;DHT22;56302;52.322;5.926;2022-10-26T02:56:31;7.50;98.80
69189;DHT22;56302;52.322;5.926;2022-10-26T02:59:01;7.50;99.20
69189;DHT22;56302;52.322;5.926;2022-10-26T03:01:28;7.50;99.40
69189;DHT22;56302;52.322;5.926;2022-10-26T03:03:57;7.50;99.40
69189;DHT22;56302;52.322;5.926;2022-10-26T03:06:24;7.50;99.30
69189;DHT22;56302;52.322;5.926;2022-10-26T03:08:50;7.50;99.30
69189;DHT22;56302;52.322;5.926;2022-10-26T03:11:16;7.50;99.40
69189;DHT22;56302;52.322;5.926;2022-10-26T03:13:42;7.60;99.60
69189;DHT22;56302;52.322;5.926;2022-10-26T03:16:07;7.60;99.80
69189;DHT22;56302;52.322;5.926;2022-10-26T03:18:33;7.70;99.90
69189;DHT22;56302;52.322;5.926;2022-10-26T03:20:59;7.80;99.90
69189;DHT22;56302;52.322;5.926;2022-10-26T03:23:24;7.90;99.90
69189;DHT22;56302;52.322;5.926;2022-10-26T03:25:50;8.00;99.90
69189;DHT22;56302;52.322;5.926;2022-10-26T03:28:15;8.10;99.90
69189;DHT22;56302;52.322;5.926;2022-10-26T03:30:41;8.10;99.90
69189;DHT22;56302;52.322;5.926;2022-10-26T03:33:07;8.20;99.90
69189;DHT22;56302;52.322;5.926;2022-10-26T03:35:32;8.20;99.90
69189;DHT22;56302;52.322;5.926;2022-10-26T03:37:58;8.30;99.90
69189;DHT22;56302;52.322;5.926;2022-10-26T03:40:23;8.30;99.90
69189;DHT22;56302;52.322;5.926;2022-10-26T03:42:49;8.30;99.90
69189;DHT22;56302;52.322;5.926;2022-10-26T03:45:14;8.40;99.90
69189;DHT22;56302;52.322;5.926;2022-10-26T03:47:47;8.40;99.90
69189;DHT22;56302;52.322;5.926;2022-10-26T03:50:15;8.40;99.90
69189;DHT22;56302;52.322;5.926;2022-10-26T03:52:41;8.50;99.90
69189;DHT22;56302;52.322;5.926;2022-10-26T03:55:07;8.50;99.90
69189;DHT22;56302;52.322;5.926;2022-10-26T03:57:33;8.60;99.90
69189;DHT22;56302;52.322;5.926;2022-10-26T03:59:59;8.60;99.90
69189;DHT22;56302;52.322;5.926;2022-10-26T04:02:24;8.70;99.90
69189;DHT22;56302;52.322;5.926;2022-10-26T04:04:50;8.70;99.90
69189;DHT22;56302;52.322;5.926;2022-10-26T04:07:15;8.70;99.90
69189;DHT22;56302;52.322;5.926;2022-10-26T04:09:41;8.70;99.90
69189;DHT22;56302;52.322;5.926;2022-10-26T04:12:06;8.70;99.90
69189;DHT22;56302;52.322;5.926;2022-10-26T04:14:32;8.80;99.90
69189;DHT22;56302;52.322;5.926;2022-10-26T04:16:57;8.80;99.90
69189;DHT22;56302;52.322;5.926;2022-10-26T04:19:23;8.80;99.90
69189;DHT22;56302;52.322;5.926;2022-10-26T04:21:50;8.80;99.90
69189;DHT22;56302;52.322;5.926;2022-10-26T04:24:16;8.80;99.90
69189;DHT22;56302;52.322;5.926;2022-10-26T04:26:41;8.80;99.90
69189;DHT22;56302;52.322;5.926;2022-10-26T04:29:07;8.90;99.90
69189;DHT22;56302;52.322;5.926;2022-10-26T04:31:33;9.00;99.90
69189;DHT22;56302;52.322;5.926;2022-10-26T04:33:59;9.00;99.90
69189;DHT22;56302;52.322;5.926;2022-10-26T04:36:24;9.00;99.90
69189;DHT22;56302;52.322;5.926;2022-10-26T04:38:50;9.00;99.90
69189;DHT22;56302;52.322;5.926;2022-10-26T04:41:15;9.00;99.90
69189;DHT22;56302;52.322;5.926;2022-10-26T04:43:41;9.00;99.90
69189;DHT22;56302;52.322;5.926;2022-10-26T04:46:07;9.00;99.90
69189;DHT22;56302;52.322;5.926;2022-10-26T04:48:32;9.00;99.90
69189;DHT22;56302;52.322;5.926;2022-10-26T04:51:00;9.10;99.90
69189;DHT22;56302;52.322;5.926;2022-10-26T04:53:26;9.00;99.90
69189;DHT22;56302;52.322;5.926;2022-10-26T04:55:57;9.10;99.90
69189;DHT22;56302;52.322;5.926;2022-10-26T04:58:22;9.10;99.90
69189;DHT22;56302;52.322;5.926;2022-10-26T05:00:48;9.10;99.90
69189;DHT22;56302;52.322;5.926;2022-10-26T05:03:13;9.20;99.90
69189;DHT22;56302;52.322;5.926;2022-10-26T05:05:39;9.10;99.90
69189;DHT22;56302;52.322;5.926;2022-10-26T05:08:04;9.20;99.90
69189;DHT22;56302;52.322;5.926;2022-10-26T05:10:31;9.20;99.90
69189;DHT22;56302;52.322;5.926;2022-10-26T05:12:58;9.20;99.90
69189;DHT22;56302;52.322;5.926;2022-10-26T05:15:24;9.30;99.90
69189;DHT22;56302;52.322;5.926;2022-10-26T05:17:55;9.30;99.90
69189;DHT22;56302;52.322;5.926;2022-10-26T05:20:21;9.20;99.90
69189;DHT22;56302;52.322;5.926;2022-10-26T05:22:53;9.20;99.90
69189;DHT22;56302;52.322;5.926;2022-10-26T05:25:18;9.20;99.90
69189;DHT22;56302;52.322;5.926;2022-10-26T05:27:44;9.20;99.90
69189;DHT22;56302;52.322;5.926;2022-10-26T05:30:10;9.20;99.90
69189;DHT22;56302;52.322;5.926;2022-10-26T05:32:35;9.10;99.90
69189;DHT22;56302;52.322;5.926;2022-10-26T05:35:01;9.10;99.90
69189;DHT22;56302;52.322;5.926;2022-10-26T05:37:29;9.10;99.90
69189;DHT22;56302;52.322;5.926;2022-10-26T05:39:55;9.00;99.90
69189;DHT22;56302;52.322;5.926;2022-10-26T05:42:20;9.00;99.90
69189;DHT22;56302;52.322;5.926;2022-10-26T05:44:46;9.00;99.90
69189;DHT22;56302;52.322;5.926;2022-10-26T05:47:12;9.00;99.90
69189;DHT22;56302;52.322;5.926;2022-10-26T05:49:37;8.90;99.90
69189;DHT22;56302;52.322;5.926;2022-10-26T05:52:03;8.90;99.90
69189;DHT22;56302;52.322;5.926;2022-10-26T05:54:28;8.90;99.90
69189;DHT22;56302;52.322;5.926;2022-10-26T05:56:54;8.80;99.90
69189;DHT22;56302;52.322;5.926;2022-10-26T05:59:20;8.80;99.90
69189;DHT22;56302;52.322;5.926;2022-10-26T06:04:36;8.80;99.90
69189;DHT22;56302;52.322;5.926;2022-10-26T06:07:08;8.80;99.90
69189;DHT22;56302;52.322;5.926;2022-10-26T06:09:35;8.70;99.90
69189;DHT22;56302;52.322;5.926;2022-10-26T06:12:01;8.70;99.90
69189;DHT22;56302;52.322;5.926;2022-10-26T06:14:27;8.70;99.90
69189;DHT22;56302;52.322;5.926;2022-10-26T06:17:01;8.70;99.90
69189;DHT22;56302;52.322;5.926;2022-10-26T06:24:55;8.60;99.90
69189;DHT22;56302;52.322;5.926;2022-10-26T06:30:17;8.60;99.90
69189;DHT22;56302;52.322;5.926;2022-10-26T06:32:45;8.60;99.90
69189;DHT22;56302;52.322;5.926;2022-10-26T06:37:54;8.60;99.90
69189;DHT22;56302;52.322;5.926;2022-10-26T06:40:21;8.60;99.90
69189;DHT22;56302;52.322;5.926;2022-10-26T06:42:47;8.60;99.90
69189;DHT22;56302;52.322;5.926;2022-10-26T06:45:14;8.60;99.90
69189;DHT22;56302;52.322;5.926;2022-10-26T06:47:59;8.60;99.90
69189;DHT22;56302;52.322;5.926;2022-10-26T06:50:38;8.60;99.90
69189;DHT22;56302;52.322;5.926;2022-10-26T06:55:51;8.70;99.90
69189;DHT22;56302;52.322;5.926;2022-10-26T06:58:21;8.70;99.90
69189;DHT22;56302;52.322;5.926;2022-10-26T07:00:50;8.70;99.90
69189;DHT22;56302;52.322;5.926;2022-10-26T07:03:16;8.80;99.90
69189;DHT22;56302;52.322;5.926;2022-10-26T07:05:42;8.80;99.90
69189;DHT22;56302;52.322;5.926;2022-10-26T07:08:08;8.90;99.90
69189;DHT22;56302;52.322;5.926;2022-10-26T07:10:33;9.00;99.90
69189;DHT22;56302;52.322;5.926;2022-10-26T07:13:05;9.00;99.90
69189;DHT22;56302;52.322;5.926;2022-10-26T07:15:35;9.10;99.90
69189;DHT22;56302;52.322;5.926;2022-10-26T07:18:03;9.20;99.90
69189;DHT22;56302;52.322;5.926;2022-10-26T07:20:33;9.30;99.90
69189;DHT22;56302;52.322;5.926;2022-10-26T07:22:59;9.30;99.90
69189;DHT22;56302;52.322;5.926;2022-10-26T07:25:25;9.30;99.90
69189;DHT22;56302;52.322;5.926;2022-10-26T07:27:51;9.40;99.90
69189;DHT22;56302;52.322;5.926;2022-10-26T07:30:16;9.30;99.90
69189;DHT22;56302;52.322;5.926;2022-10-26T07:32:42;9.30;99.90
69189;DHT22;56302;52.322;5.926;2022-10-26T07:35:08;9.30;99.90
69189;DHT22;56302;52.322;5.926;2022-10-26T07:37:33;9.30;99.90
69189;DHT22;56302;52.322;5.926;2022-10-26T07:39:59;9.30;99.90
69189;DHT22;56302;52.322;5.926;2022-10-26T07:42:24;9.30;99.90
69189;DHT22;56302;52.322;5.926;2022-10-26T07:44:50;9.40;99.90
69189;DHT22;56302;52.322;5.926;2022-10-26T07:47:15;9.50;99.90
69189;DHT22;56302;52.322;5.926;2022-10-26T07:49:41;9.60;99.90
69189;DHT22;56302;52.322;5.926;2022-10-26T07:52:08;9.60;99.90
69189;DHT22;56302;52.322;5.926;2022-10-26T07:54:33;9.60;99.90
69189;DHT22;56302;52.322;5.926;2022-10-26T07:56:59;9.70;99.90
69189;DHT22;56302;52.322;5.926;2022-10-26T07:59:25;9.70;99.90
69189;DHT22;56302;52.322;5.926;2022-10-26T08:01:51;9.80;99.90
69189;DHT22;56302;52.322;5.926;2022-10-26T08:04:16;9.90;99.90
69189;DHT22;56302;52.322;5.926;2022-10-26T08:06:42;10.00;99.90
69189;DHT22;56302;52.322;5.926;2022-10-26T08:09:07;10.20;99.90
69189;DHT22;56302;52.322;5.926;2022-10-26T08:11:33;10.30;99.90
69189;DHT22;56302;52.322;5.926;2022-10-26T08:14:02;10.40;99.90
69189;DHT22;56302;52.322;5.926;2022-10-26T08:16:28;10.50;99.90
69189;DHT22;56302;52.322;5.926;2022-10-26T08:18:53;10.60;99.90
69189;DHT22;56302;52.322;5.926;2022-10-26T08:21:19;10.60;99.90
69189;DHT22;56302;52.322;5.926;2022-10-26T08:23:45;10.70;99.90
69189;DHT22;56302;52.322;5.926;2022-10-26T08:26:11;10.80;99.90
69189;DHT22;56302;52.322;5.926;2022-10-26T08:28:37;10.90;99.90
69189;DHT22;56302;52.322;5.926;2022-10-26T08:31:03;11.00;99.90
69189;DHT22;56302;52.322;5.926;2022-10-26T08:33:29;11.10;99.90
69189;DHT22;56302;52.322;5.926;2022-10-26T08:35:59;11.20;99.90
69189;DHT22;56302;52.322;5.926;2022-10-26T08:38:25;11.30;99.90
69189;DHT22;56302;52.322;5.926;2022-10-26T08:40:52;11.40;99.90
69189;DHT22;56302;52.322;5.926;2022-10-26T08:43:30;11.50;99.90
69189;DHT22;56302;52.322;5.926;2022-10-26T08:46:06;11.60;99.90
69189;DHT22;56302;52.322;5.926;2022-10-26T08:48:39;11.70;99.90
69189;DHT22;56302;52.322;5.926;2022-10-26T08:51:32;11.80;99.90
69189;DHT22;56302;52.322;5.926;2022-10-26T08:54:03;11.90;99.80
69189;DHT22;56302;52.322;5.926;2022-10-26T08:56:41;12.00;99.50
69189;DHT22;56302;52.322;5.926;2022-10-26T09:02:02;12.20;99.10
69189;DHT22;56302;52.322;5.926;2022-10-26T09:04:30;12.40;98.70
69189;DHT22;56302;52.322;5.926;2022-10-26T09:09:40;12.60;98.10
69189;DHT22;56302;52.322;5.926;2022-10-26T09:12:19;12.70;97.80
69189;DHT22;56302;52.322;5.926;2022-10-26T09:15:18;12.80;97.60
69189;DHT22;56302;52.322;5.926;2022-10-26T09:17:56;12.90;97.20
69189;DHT22;56302;52.322;5.926;2022-10-26T09:20:47;13.00;96.90
69189;DHT22;56302;52.322;5.926;2022-10-26T09:23:26;13.10;96.70
69189;DHT22;56302;52.322;5.926;2022-10-26T09:25:58;13.20;97.00
69189;DHT22;56302;52.322;5.926;2022-10-26T09:28:26;13.30;97.10
69189;DHT22;56302;52.322;5.926;2022-10-26T09:30:53;13.50;97.00
69189;DHT22;56302;52.322;5.926;2022-10-26T09:33:23;13.50;96.70
69189;DHT22;56302;52.322;5.926;2022-10-26T09:35:55;13.70;96.70
69189;DHT22;56302;52.322;5.926;2022-10-26T09:38:35;13.90;96.10
69189;DHT22;56302;52.322;5.926;2022-10-26T09:41:28;14.10;95.50
69189;DHT22;56302;52.322;5.926;2022-10-26T09:44:12;14.20;94.20
69189;DHT22;56302;52.322;5.926;2022-10-26T09:47:02;14.50;93.80
69189;DHT22;56302;52.322;5.926;2022-10-26T09:49:51;14.60;93.40
69189;DHT22;56302;52.322;5.926;2022-10-26T09:52:18;14.70;92.30
69189;DHT22;56302;52.322;5.926;2022-10-26T09:54:45;14.80;92.10
69189;DHT22;56302;52.322;5.926;2022-10-26T09:57:13;15.00;92.10
69189;DHT22;56302;52.322;5.926;2022-10-26T09:59:40;15.00;90.70
69189;DHT22;56302;52.322;5.926;2022-10-26T10:02:32;15.10;90.90
69189;DHT22;56302;52.322;5.926;2022-10-26T10:04:58;15.40;91.00
69189;DHT22;56302;52.322;5.926;2022-10-26T10:07:24;15.60;90.50
69189;DHT22;56302;52.322;5.926;2022-10-26T10:12:40;15.90;87.50
69189;DHT22;56302;52.322;5.926;2022-10-26T10:15:16;15.90;87.50
69189;DHT22;56302;52.322;5.926;2022-10-26T10:17:49;15.90;86.90
69189;DHT22;56302;52.322;5.926;2022-10-26T10:20:32;16.00;88.40
69189;DHT22;56302;52.322;5.926;2022-10-26T10:23:01;16.00;88.30
69189;DHT22;56302;52.322;5.926;2022-10-26T10:25:33;16.10;87.70
69189;DHT22;56302;52.322;5.926;2022-10-26T10:28:00;16.20;87.40
69189;DHT22;56302;52.322;5.926;2022-10-26T10:30:31;16.30;86.50
69189;DHT22;56302;52.322;5.926;2022-10-26T10:33:06;16.50;86.00
69189;DHT22;56302;52.322;5.926;2022-10-26T10:35:31;16.70;85.30
69189;DHT22;56302;52.322;5.926;2022-10-26T10:37:57;16.90;84.70
69189;DHT22;56302;52.322;5.926;2022-10-26T10:40:27;17.00;83.70
69189;DHT22;56302;52.322;5.926;2022-10-26T10:43:04;17.20;84.90
69189;DHT22;56302;52.322;5.926;2022-10-26T10:45:31;17.30;82.20
69189;DHT22;56302;52.322;5.926;2022-10-26T10:50:28;17.50;81.80
69189;DHT22;56302;52.322;5.926;2022-10-26T10:53:12;17.40;81.20
69189;DHT22;56302;52.322;5.926;2022-10-26T10:55:42;17.50;81.30
69189;DHT22;56302;52.322;5.926;2022-10-26T10:58:26;17.60;80.20
69189;DHT22;56302;52.322;5.926;2022-10-26T11:00:55;17.60;80.60
69189;DHT22;56302;52.322;5.926;2022-10-26T11:06:21;17.60;81.40
69189;DHT22;56302;52.322;5.926;2022-10-26T11:14:12;17.70;81.00
69189;DHT22;56302;52.322;5.926;2022-10-26T11:16:42;17.70;80.80
69189;DHT22;56302;52.322;5.926;2022-10-26T11:19:23;17.80;79.90
69189;DHT22;56302;52.322;5.926;2022-10-26T11:21:54;18.00;80.60
69189;DHT22;56302;52.322;5.926;2022-10-26T11:24:43;18.10;81.00
69189;DHT22;56302;52.322;5.926;2022-10-26T11:27:19;18.10;79.30
69189;DHT22;56302;52.322;5.926;2022-10-26T11:30:02;18.20;80.30
69189;DHT22;56302;52.322;5.926;2022-10-26T11:32:46;18.10;79.70
69189;DHT22;56302;52.322;5.926;2022-10-26T11:40:51;17.80;80.30
69189;DHT22;56302;52.322;5.926;2022-10-26T11:44:00;17.80;80.30
69189;DHT22;56302;52.322;5.926;2022-10-26T11:46:43;17.90;80.40
69189;DHT22;56302;52.322;5.926;2022-10-26T11:49:37;18.10;80.20
69189;DHT22;56302;52.322;5.926;2022-10-26T11:52:16;18.10;79.00
69189;DHT22;56302;52.322;5.926;2022-10-26T11:54:53;18.10;79.90
69189;DHT22;56302;52.322;5.926;2022-10-26T11:57:21;18.00;79.00
69189;DHT22;56302;52.322;5.926;2022-10-26T11:59:51;18.00;79.60
69189;DHT22;56302;52.322;5.926;2022-10-26T12:02:22;18.00;79.30
69189;DHT22;56302;52.322;5.926;2022-10-26T12:07:49;17.90;80.90
69189;DHT22;56302;52.322;5.926;2022-10-26T12:10:26;17.90;79.60
69189;DHT22;56302;52.322;5.926;2022-10-26T12:13:01;17.90;80.40
69189;DHT22;56302;52.322;5.926;2022-10-26T12:15:44;18.00;80.80
69189;DHT22;56302;52.322;5.926;2022-10-26T12:18:36;18.10;80.60
69189;DHT22;56302;52.322;5.926;2022-10-26T12:21:06;18.10;81.00
69189;DHT22;56302;52.322;5.926;2022-10-26T12:23:38;18.00;80.80
69189;DHT22;56302;52.322;5.926;2022-10-26T12:29:11;18.10;80.50
69189;DHT22;56302;52.322;5.926;2022-10-26T12:34:06;18.00;81.10
69189;DHT22;56302;52.322;5.926;2022-10-26T12:44:33;18.00;81.00
69189;DHT22;56302;52.322;5.926;2022-10-26T12:46:59;17.90;81.10
69189;DHT22;56302;52.322;5.926;2022-10-26T13:00:33;17.50;81.90
69189;DHT22;56302;52.322;5.926;2022-10-26T13:03:29;17.50;82.00
69189;DHT22;56302;52.322;5.926;2022-10-26T13:08:53;17.50;82.20
69189;DHT22;56302;52.322;5.926;2022-10-26T13:11:30;17.50;82.40
69189;DHT22;56302;52.322;5.926;2022-10-26T13:13:58;17.40;82.30
69189;DHT22;56302;52.322;5.926;2022-10-26T13:16:26;17.50;83.40
69189;DHT22;56302;52.322;5.926;2022-10-26T13:18:52;17.50;83.00
69189;DHT22;56302;52.322;5.926;2022-10-26T13:21:19;17.50;82.80
69189;DHT22;56302;52.322;5.926;2022-10-26T13:23:54;17.50;82.30
69189;DHT22;56302;52.322;5.926;2022-10-26T13:26:30;17.60;81.20
69189;DHT22;56302;52.322;5.926;2022-10-26T13:29:01;17.70;81.80
69189;DHT22;56302;52.322;5.926;2022-10-26T13:34:04;17.60;81.20
69189;DHT22;56302;52.322;5.926;2022-10-26T13:39:19;17.60;80.50
69189;DHT22;56302;52.322;5.926;2022-10-26T13:41:46;17.60;81.00
69189;DHT22;56302;52.322;5.926;2022-10-26T13:44:25;17.60;80.20
69189;DHT22;56302;52.322;5.926;2022-10-26T13:47:00;17.60;80.10
69189;DHT22;56302;52.322;5.926;2022-10-26T13:49:35;17.60;80.20
69189;DHT22;56302;52.322;5.926;2022-10-26T13:52:03;17.60;80.40
69189;DHT22;56302;52.322;5.926;2022-10-26T13:54:46;17.60;80.80
69189;DHT22;56302;52.322;5.926;2022-10-26T13:57:14;17.60;81.90
69189;DHT22;56302;52.322;5.926;2022-10-26T13:59:43;17.40;82.80
69189;DHT22;56302;52.322;5.926;2022-10-26T14:02:22;17.40;81.30
69189;DHT22;56302;52.322;5.926;2022-10-26T14:05:03;17.50;81.10
69189;DHT22;56302;52.322;5.926;2022-10-26T14:07:40;17.60;80.80
69189;DHT22;56302;52.322;5.926;2022-10-26T14:10:23;17.50;81.00
69189;DHT22;56302;52.322;5.926;2022-10-26T14:12:50;17.50;81.30
69189;DHT22;56302;52.322;5.926;2022-10-26T14:15:22;17.60;81.30
69189;DHT22;56302;52.322;5.926;2022-10-26T14:17:51;17.50;81.30
69189;DHT22;56302;52.322;5.926;2022-10-26T14:20:20;17.50;80.60
69189;DHT22;56302;52.322;5.926;2022-10-26T14:22:46;17.50;81.50
69189;DHT22;56302;52.322;5.926;2022-10-26T14:25:24;17.40;81.40
69189;DHT22;56302;52.322;5.926;2022-10-26T14:27:50;17.40;80.30
69189;DHT22;56302;52.322;5.926;2022-10-26T14:30:24;17.40;80.40
69189;DHT22;56302;52.322;5.926;2022-10-26T14:32:51;17.40;80.60
69189;DHT22;56302;52.322;5.926;2022-10-26T14:35:24;17.30;80.50
69189;DHT22;56302;52.322;5.926;2022-10-26T14:40:25;17.30;81.20
69189;DHT22;56302;52.322;5.926;2022-10-26T14:42:57;17.30;81.50
69189;DHT22;56302;52.322;5.926;2022-10-26T14:45:30;17.30;81.20
69189;DHT22;56302;52.322;5.926;2022-10-26T14:47:59;17.30;81.50
69189;DHT22;56302;52.322;5.926;2022-10-26T14:50:25;17.20;81.90
69189;DHT22;56302;52.322;5.926;2022-10-26T14:53:10;17.20;82.10
69189;DHT22;56302;52.322;5.926;2022-10-26T14:55:50;17.20;82.30
69189;DHT22;56302;52.322;5.926;2022-10-26T14:58:25;17.20;82.30
69189;DHT22;56302;52.322;5.926;2022-10-26T15:08:58;17.00;83.80
69189;DHT22;56302;52.322;5.926;2022-10-26T15:11:27;17.00;84.00
69189;DHT22;56302;52.322;5.926;2022-10-26T15:13:54;16.90;84.60
69189;DHT22;56302;52.322;5.926;2022-10-26T15:16:25;16.90;85.20
69189;DHT22;56302;52.322;5.926;2022-10-26T15:18:57;16.90;85.40
69189;DHT22;56302;52.322;5.926;2022-10-26T15:21:26;16.80;85.80
69189;DHT22;56302;52.322;5.926;2022-10-26T15:23:54;16.80;86.10
69189;DHT22;56302;52.322;5.926;2022-10-26T15:26:21;16.70;86.50
69189;DHT22;56302;52.322;5.926;2022-10-26T15:28:46;16.70;86.70
69189;DHT22;56302;52.322;5.926;2022-10-26T15:36:21;16.70;87.20
69189;DHT22;56302;52.322;5.926;2022-10-26T15:38:48;16.70;87.60
69189;DHT22;56302;52.322;5.926;2022-10-26T15:41:27;16.70;87.90
69189;DHT22;56302;52.322;5.926;2022-10-26T15:43:55;16.60;88.00
69189;DHT22;56302;52.322;5.926;2022-10-26T15:46:22;16.60;88.00
69189;DHT22;56302;52.322;5.926;2022-10-26T15:48:58;16.60;88.10
69189;DHT22;56302;52.322;5.926;2022-10-26T15:51:25;16.60;88.10
69189;DHT22;56302;52.322;5.926;2022-10-26T15:53:50;16.50;88.20
69189;DHT22;56302;52.322;5.926;2022-10-26T15:56:22;16.50;88.40
69189;DHT22;56302;52.322;5.926;2022-10-26T15:58:48;16.50;88.30
69189;DHT22;56302;52.322;5.926;2022-10-26T16:01:19;16.50;88.50
69189;DHT22;56302;52.322;5.926;2022-10-26T16:03:45;16.40;88.50
69189;DHT22;56302;52.322;5.926;2022-10-26T16:06:15;16.40;88.50
69189;DHT22;56302;52.322;5.926;2022-10-26T16:08:46;16.40;88.80
69189;DHT22;56302;52.322;5.926;2022-10-26T16:11:13;16.30;88.80
69189;DHT22;56302;52.322;5.926;2022-10-26T16:13:39;16.30;89.00
69189;DHT22;56302;52.322;5.926;2022-10-26T16:16:12;16.20;89.10
69189;DHT22;56302;52.322;5.926;2022-10-26T16:18:38;16.20;89.10
69189;DHT22;56302;52.322;5.926;2022-10-26T16:21:04;16.10;89.10
69189;DHT22;56302;52.322;5.926;2022-10-26T16:23:30;16.10;89.10
69189;DHT22;56302;52.322;5.926;2022-10-26T16:25:55;16.00;89.10
69189;DHT22;56302;52.322;5.926;2022-10-26T16:28:21;16.00;89.20
69189;DHT22;56302;52.322;5.926;2022-10-26T16:30:47;15.80;89.40
69189;DHT22;56302;52.322;5.926;2022-10-26T16:33:12;15.80;89.60
69189;DHT22;56302;52.322;5.926;2022-10-26T16:35:38;15.70;89.60
69189;DHT22;56302;52.322;5.926;2022-10-26T16:38:04;15.70;89.60
69189;DHT22;56302;52.322;5.926;2022-10-26T16:40:29;15.70;89.60
69189;DHT22;56302;52.322;5.926;2022-10-26T16:42:55;15.70;89.50
69189;DHT22;56302;52.322;5.926;2022-10-26T16:45:20;15.60;89.60
69189;DHT22;56302;52.322;5.926;2022-10-26T16:47:46;15.50;89.90
69189;DHT22;56302;52.322;5.926;2022-10-26T16:50:12;15.50;90.20
69189;DHT22;56302;52.322;5.926;2022-10-26T16:52:38;15.40;90.40
69189;DHT22;56302;52.322;5.926;2022-10-26T16:55:05;15.40;90.50
69189;DHT22;56302;52.322;5.926;2022-10-26T16:57:31;15.30;90.50
69189;DHT22;56302;52.322;5.926;2022-10-26T16:59:57;15.20;90.60
69189;DHT22;56302;52.322;5.926;2022-10-26T17:02:23;15.10;91.10
69189;DHT22;56302;52.322;5.926;2022-10-26T17:04:48;15.00;91.40
69189;DHT22;56302;52.322;5.926;2022-10-26T17:07:14;14.90;91.60
69189;DHT22;56302;52.322;5.926;2022-10-26T17:09:39;14.90;91.70
69189;DHT22;56302;52.322;5.926;2022-10-26T17:12:05;14.80;91.70
69189;DHT22;56302;52.322;5.926;2022-10-26T17:14:31;14.80;91.40
69189;DHT22;56302;52.322;5.926;2022-10-26T17:16:57;14.80;91.20
69189;DHT22;56302;52.322;5.926;2022-10-26T17:19:22;14.70;91.10
69189;DHT22;56302;52.322;5.926;2022-10-26T17:21:48;14.70;91.00
69189;DHT22;56302;52.322;5.926;2022-10-26T17:24:14;14.60;90.90
69189;DHT22;56302;52.322;5.926;2022-10-26T17:26:39;14.60;90.80
69189;DHT22;56302;52.322;5.926;2022-10-26T17:29:05;14.50;91.00
69189;DHT22;56302;52.322;5.926;2022-10-26T17:31:31;14.50;90.90
69189;DHT22;56302;52.322;5.926;2022-10-26T17:33:57;14.40;91.10
69189;DHT22;56302;52.322;5.926;2022-10-26T17:36:24;14.30;91.30
69189;DHT22;56302;52.322;5.926;2022-10-26T17:38:52;14.30;91.30
69189;DHT22;56302;52.322;5.926;2022-10-26T17:41:19;14.20;91.40
69189;DHT22;56302;52.322;5.926;2022-10-26T17:43:46;14.10;91.80
69189;DHT22;56302;52.322;5.926;2022-10-26T17:46:14;14.10;91.60
69189;DHT22;56302;52.322;5.926;2022-10-26T17:48:41;14.10;91.30
69189;DHT22;56302;52.322;5.926;2022-10-26T17:51:10;14.00;91.30
69189;DHT22;56302;52.322;5.926;2022-10-26T17:53:36;13.90;91.50
69189;DHT22;56302;52.322;5.926;2022-10-26T17:56:03;13.90;91.70